Time;durP1;ratioP1;P1;durP2;ratioP2;P2;SDS_P1;SDS_P2;PMS_P1;PMS_P2;Temp;Humidity;BMP_temperature;BMP_pressure;BME280_temperature;BME280_humidity;BME280_pressure;Samples;Min_cycle;Max_cycle;Signal;HPM_P1;HPM_P2
2022/06/30 00:01:21;;;;;;;4.18;1.50;;;;;;;29.15;39.70;96582.94;5094289;28;20043;-34
2022/06/30 00:03:46;;;;;;;3.67;1.77;;;;;;;29.06;40.00;96580.63;5092751;28;20028;-34
2022/06/30 00:06:12;;;;;;;5.13;2.05;;;;;;;29.07;39.60;96589.75;5093947;28;20040;-34
2022/06/30 00:08:37;;;;;;;2.15;1.67;;;;;;;29.07;39.66;96586.94;5094103;28;20016;-34
2022/06/30 00:11:06;;;;;;;3.63;1.75;;;;;;;29.05;39.59;96595.16;5094075;28;20032;-34
2022/06/30 00:13:37;;;;;;;2.65;1.52;;;;;;;28.91;40.01;96588.91;5094122;28;20020;-34
2022/06/30 00:16:03;;;;;;;3.28;1.98;;;;;;;28.92;39.99;96591.16;5094232;28;20040;-34
2022/06/30 00:18:29;;;;;;;2.85;1.35;;;;;;;29.04;39.50;96593.66;5093865;28;20484;-34
2022/06/30 00:20:55;;;;;;;2.45;1.50;;;;;;;29.00;39.38;96588.41;5094109;28;20083;-34
2022/06/30 00:23:20;;;;;;;1.92;1.45;;;;;;;28.95;39.65;96598.41;5093767;28;20028;-34
2022/06/30 00:25:47;;;;;;;4.32;1.60;;;;;;;28.85;39.48;96602.97;5094040;28;20462;-34
2022/06/30 00:28:13;;;;;;;3.15;1.65;;;;;;;28.86;39.92;96601.69;5093882;28;20031;-33
2022/06/30 00:30:38;;;;;;;2.70;1.60;;;;;;;28.87;39.74;96603.19;5093998;28;20473;-33
2022/06/30 00:33:03;;;;;;;4.38;1.73;;;;;;;28.82;39.94;96601.28;5091339;28;20032;-34
2022/06/30 00:35:29;;;;;;;4.10;1.67;;;;;;;28.91;39.61;96608.44;5092474;28;20474;-34
2022/06/30 00:37:54;;;;;;;5.32;2.33;;;;;;;28.89;39.63;96603.41;5093881;28;20469;-33
2022/06/30 00:40:21;;;;;;;2.65;1.40;;;;;;;28.86;39.53;96607.28;5093596;28;20024;-34
2022/06/30 00:42:46;;;;;;;1.80;1.50;;;;;;;28.90;39.52;96601.34;5093675;28;20103;-34
2022/06/30 00:45:11;;;;;;;3.63;2.05;;;;;;;28.88;39.62;96603.94;5093457;28;20054;-34
2022/06/30 00:47:37;;;;;;;2.80;1.42;;;;;;;28.79;39.82;96607.97;5093375;28;20024;-33
2022/06/30 00:50:03;;;;;;;4.40;1.80;;;;;;;28.81;39.58;96610.94;5093582;28;20124;-34
2022/06/30 00:52:30;;;;;;;3.35;1.92;;;;;;;28.78;39.67;96600.88;5093338;28;20030;-34
2022/06/30 00:54:57;;;;;;;3.50;1.88;;;;;;;28.83;39.71;96596.44;5093757;28;20068;-34
2022/06/30 00:57:24;;;;;;;3.70;1.60;;;;;;;28.74;39.49;96599.69;5093710;28;20032;-34
2022/06/30 00:59:53;;;;;;;2.53;1.65;;;;;;;28.82;39.73;96598.47;5093287;28;20024;-34
2022/06/30 01:02:19;;;;;;;3.17;1.60;;;;;;;28.85;39.88;96597.41;5093386;28;20028;-34
2022/06/30 01:04:51;;;;;;;6.10;2.15;;;;;;;28.81;39.36;96593.44;5093292;28;20098;-34
2022/06/30 01:07:18;;;;;;;2.72;1.77;;;;;;;28.84;39.54;96592.34;5093223;28;20024;-34
2022/06/30 01:12:42;;;;;;;3.65;1.90;;;;;;;28.75;39.95;96582.41;5093343;28;20028;-34
2022/06/30 01:15:08;;;;;;;3.75;1.63;;;;;;;28.80;39.75;96578.75;5093078;28;20017;-34
2022/06/30 01:17:33;;;;;;;3.22;1.70;;;;;;;28.74;40.02;96578.09;5093237;28;20376;-34
2022/06/30 01:20:00;;;;;;;3.50;1.83;;;;;;;28.83;39.51;96583.22;5093187;28;20049;-34
2022/06/30 01:22:26;;;;;;;6.72;1.77;;;;;;;28.81;39.62;96585.81;5093393;28;20027;-33
2022/06/30 01:24:51;;;;;;;3.22;1.73;;;;;;;28.79;40.06;96582.84;5093276;28;20466;-33
2022/06/30 01:27:17;;;;;;;2.58;1.60;;;;;;;28.76;39.76;96583.91;5093184;28;20032;-33
2022/06/30 01:29:43;;;;;;;3.45;1.77;;;;;;;28.81;39.84;96588.59;5093117;28;20031;-34
2022/06/30 01:32:09;;;;;;;3.17;1.58;;;;;;;28.74;39.70;96586.47;5093090;28;20024;-34
2022/06/30 01:34:35;;;;;;;2.90;1.67;;;;;;;28.70;40.16;96580.47;5093073;28;20020;-34
2022/06/30 01:37:00;;;;;;;2.08;1.60;;;;;;;28.74;39.99;96574.56;5093141;28;20373;-34
2022/06/30 01:39:26;;;;;;;4.88;2.13;;;;;;;28.71;40.05;96573.59;5093098;28;20021;-34
2022/06/30 01:41:51;;;;;;;5.75;2.00;;;;;;;28.75;39.87;96567.69;5093033;28;20519;-34
2022/06/30 01:44:17;;;;;;;5.38;1.80;;;;;;;28.72;39.89;96575.09;5093996;28;20385;-34
2022/06/30 01:46:49;;;;;;;4.60;1.90;;;;;;;28.68;40.04;96573.97;5096954;28;20216;-34
2022/06/30 01:49:15;;;;;;;3.83;1.87;;;;;;;28.75;39.68;96576.81;5096824;28;20081;-34
2022/06/30 01:51:41;;;;;;;3.78;1.60;;;;;;;28.66;39.53;96574.50;5096720;28;20726;-34
2022/06/30 01:54:08;;;;;;;4.00;1.70;;;;;;;28.72;39.82;96568.78;5097103;28;20028;-34
2022/06/30 01:56:34;;;;;;;5.15;1.92;;;;;;;28.72;39.71;96563.19;5096790;28;20020;-34
2022/06/30 01:59:00;;;;;;;3.45;1.67;;;;;;;28.69;39.94;96553.88;5096527;28;20030;-34
2022/06/30 02:01:25;;;;;;;3.75;1.35;;;;;;;28.73;39.60;96561.91;5096650;28;20020;-33
2022/06/30 02:03:50;;;;;;;3.60;1.60;;;;;;;28.71;39.17;96562.44;5096458;28;20020;-34
2022/06/30 02:06:16;;;;;;;2.80;1.52;;;;;;;28.67;39.65;96567.63;5096248;28;20036;-34
2022/06/30 02:08:42;;;;;;;4.15;1.80;;;;;;;28.68;39.48;96569.13;5096438;28;20121;-34
2022/06/30 02:11:07;;;;;;;2.97;1.90;;;;;;;28.62;39.09;96574.09;5096434;28;20034;-35
2022/06/30 02:13:33;;;;;;;4.45;1.83;;;;;;;28.69;39.12;96576.19;5096395;28;20028;-34
2022/06/30 02:15:58;;;;;;;3.42;1.55;;;;;;;28.68;38.83;96576.75;5096449;28;20012;-33
2022/06/30 02:18:24;;;;;;;4.43;1.52;;;;;;;28.63;39.34;96572.81;5096331;28;20024;-34
2022/06/30 02:20:49;;;;;;;3.35;1.60;;;;;;;28.75;38.63;96590.03;5096231;28;20028;-33
2022/06/30 02:23:15;;;;;;;2.28;1.58;;;;;;;28.71;37.90;96584.78;5096131;28;20016;-33
2022/06/30 02:25:40;;;;;;;3.08;1.77;;;;;;;28.72;38.54;96591.84;5096073;28;20070;-34
2022/06/30 02:28:06;;;;;;;2.90;1.70;;;;;;;28.66;38.48;96582.13;5096202;28;20027;-33
2022/06/30 02:30:32;;;;;;;3.42;1.58;;;;;;;28.67;38.56;96589.22;5096022;28;20027;-33
2022/06/30 02:32:58;;;;;;;3.58;1.58;;;;;;;28.71;38.20;96589.59;5096170;28;20034;-34
2022/06/30 02:35:24;;;;;;;3.78;1.90;;;;;;;28.72;37.62;96574.34;5096140;28;20019;-33
2022/06/30 02:37:50;;;;;;;3.88;1.60;;;;;;;28.67;38.15;96575.25;5094548;28;20387;-34
2022/06/30 02:40:15;;;;;;;2.47;1.58;;;;;;;28.71;38.40;96572.84;5095721;28;20061;-34
2022/06/30 02:42:42;;;;;;;4.72;2.08;;;;;;;28.71;37.56;96584.03;5095745;28;20078;-33
2022/06/30 02:45:09;;;;;;;2.50;1.48;;;;;;;28.68;37.76;96577.50;5095529;28;20038;-33
2022/06/30 02:47:36;;;;;;;4.00;1.50;;;;;;;28.67;37.66;96583.63;5095630;28;20016;-34
2022/06/30 02:50:05;;;;;;;3.25;1.58;;;;;;;28.57;38.25;96574.97;5095650;28;20024;-33
2022/06/30 02:52:35;;;;;;;1.83;1.20;;;;;;;28.68;38.14;96571.19;5095584;28;20072;-34
2022/06/30 02:55:00;;;;;;;3.05;2.13;;;;;;;28.63;38.02;96574.84;5095092;28;20048;-33
2022/06/30 02:57:26;;;;;;;4.40;1.60;;;;;;;28.67;37.59;96573.22;5095602;28;20043;-34
2022/06/30 02:59:52;;;;;;;3.85;1.42;;;;;;;28.70;37.60;96565.78;5095698;28;20027;-33
2022/06/30 03:02:17;;;;;;;2.45;1.33;;;;;;;28.70;37.52;96574.91;5095543;28;20381;-34
2022/06/30 03:04:43;;;;;;;3.13;1.50;;;;;;;28.67;36.56;96575.25;5095134;28;20032;-34
2022/06/30 03:07:08;;;;;;;3.88;1.90;;;;;;;28.71;37.12;96579.19;5095069;28;20051;-34
2022/06/30 03:09:34;;;;;;;3.78;1.63;;;;;;;28.74;36.89;96580.91;5095243;28;20474;-34
2022/06/30 03:12:00;;;;;;;4.40;1.70;;;;;;;28.70;36.97;96576.94;5095079;28;20028;-33
2022/06/30 03:14:26;;;;;;;2.10;1.38;;;;;;;28.63;36.52;96581.16;5095138;28;20027;-33
2022/06/30 03:16:51;;;;;;;2.08;1.35;;;;;;;28.68;36.88;96571.94;5095090;28;20016;-34
2022/06/30 03:19:17;;;;;;;4.53;2.28;;;;;;;28.66;36.51;96574.50;5094958;28;20402;-34
2022/06/30 03:21:42;;;;;;;4.18;1.63;;;;;;;28.65;36.63;96572.25;5095036;28;20107;-33
2022/06/30 03:24:08;;;;;;;1.80;1.30;;;;;;;28.66;36.36;96576.56;5095049;28;20024;-34
2022/06/30 03:26:36;;;;;;;2.05;1.30;;;;;;;28.67;36.11;96573.22;5094765;28;20477;-34
2022/06/30 03:29:02;;;;;;;1.88;1.60;;;;;;;28.65;36.13;96573.00;5093496;28;20028;-34
2022/06/30 03:31:27;;;;;;;3.15;1.70;;;;;;;28.63;36.34;96572.81;5094791;28;20394;-33
2022/06/30 03:33:53;;;;;;;3.80;1.83;;;;;;;28.63;36.30;96575.59;5094860;28;20024;-33
2022/06/30 03:36:18;;;;;;;2.92;1.70;;;;;;;28.60;36.17;96579.47;5094709;28;20469;-34
2022/06/30 03:38:44;;;;;;;3.05;1.52;;;;;;;28.61;36.03;96580.97;5094584;28;20187;-33
2022/06/30 03:41:09;;;;;;;2.88;1.60;;;;;;;28.59;34.93;96577.97;5093355;28;20020;-33
2022/06/30 03:43:35;;;;;;;3.40;1.40;;;;;;;28.56;35.23;96579.78;5094585;28;20413;-33
2022/06/30 03:46:00;;;;;;;3.63;1.45;;;;;;;28.60;35.42;96579.47;5094555;28;20024;-33
2022/06/30 03:48:25;;;;;;;2.85;1.25;;;;;;;28.62;35.37;96581.72;5094464;28;20020;-33
2022/06/30 03:50:51;;;;;;;3.03;1.30;;;;;;;28.60;35.21;96571.09;5094397;28;20024;-34
2022/06/30 03:53:16;;;;;;;4.07;1.60;;;;;;;28.53;35.79;96574.56;5094543;28;20032;-34
2022/06/30 03:55:42;;;;;;;1.67;1.15;;;;;;;28.57;34.93;96574.97;5094222;28;20012;-34
2022/06/30 03:58:08;;;;;;;2.58;1.40;;;;;;;28.60;35.49;96573.88;5094404;28;20473;-34
2022/06/30 04:00:34;;;;;;;5.15;1.70;;;;;;;28.53;35.10;96569.00;5094322;28;20039;-33
2022/06/30 04:03:01;;;;;;;2.22;1.30;;;;;;;28.57;35.75;96563.81;5094256;28;20102;-33
2022/06/30 04:05:27;;;;;;;2.58;1.38;;;;;;;28.51;35.10;96566.00;5093792;28;20048;-33
2022/06/30 04:07:52;;;;;;;2.65;1.38;;;;;;;28.47;35.16;96571.16;5093429;28;20024;-33
2022/06/30 04:10:18;;;;;;;2.58;1.48;;;;;;;28.44;35.54;96564.59;5094191;28;20020;-34
2022/06/30 04:12:44;;;;;;;2.65;1.40;;;;;;;28.48;34.07;96561.50;5094063;28;20115;-34
2022/06/30 04:15:10;;;;;;;2.70;1.33;;;;;;;28.53;34.59;96569.75;5093026;28;20028;-34
2022/06/30 04:17:35;;;;;;;3.08;1.23;;;;;;;28.53;34.92;96569.00;5094254;28;20429;-33
2022/06/30 04:20:06;;;;;;;2.38;1.25;;;;;;;28.55;34.84;96566.41;5094095;28;20063;-34
2022/06/30 04:22:32;;;;;;;3.05;1.30;;;;;;;28.49;34.62;96565.78;5092637;28;20023;-34
2022/06/30 04:24:58;;;;;;;1.90;1.10;;;;;;;28.51;34.99;96563.19;5093789;28;20135;-35
2022/06/30 04:27:23;;;;;;;2.20;1.30;;;;;;;28.49;34.03;96577.69;5093583;28;20028;-34
2022/06/30 04:29:49;;;;;;;1.98;1.25;;;;;;;28.49;34.92;96568.56;5093713;28;20031;-34
2022/06/30 04:34:58;;;;;;;1.55;1.10;;;;;;;28.47;34.35;96571.16;5093642;28;20081;-34
2022/06/30 04:37:24;;;;;;;2.95;1.15;;;;;;;28.48;34.47;96572.66;5093870;28;20012;-33
2022/06/30 04:41:23;;;;;;;4.05;1.30;;;;;;;28.47;34.61;96571.91;5093866;28;20028;-34
2022/06/30 04:42:34;;;;;;;2.67;1.08;;;;;;;28.45;35.06;96580.06;5093654;28;20039;-33
2022/06/30 04:45:00;;;;;;;1.92;1.13;;;;;;;28.45;33.36;96576.53;5093391;28;20028;-34
2022/06/30 04:47:25;;;;;;;3.30;1.45;;;;;;;28.42;34.02;96580.41;5093601;28;20024;-33
2022/06/30 04:49:51;;;;;;;2.08;1.20;;;;;;;28.42;34.00;96581.16;5093480;28;20024;-33
2022/06/30 04:52:16;;;;;;;3.55;1.20;;;;;;;28.38;33.76;96569.59;5093357;28;20028;-34
2022/06/30 04:54:41;;;;;;;2.47;1.25;;;;;;;28.32;33.43;96579.34;5093279;28;20023;-34
2022/06/30 04:57:07;;;;;;;3.13;1.17;;;;;;;28.42;33.98;96575.59;5093345;28;20027;-33
2022/06/30 04:59:32;;;;;;;4.78;1.55;;;;;;;28.40;33.98;96569.03;5093319;28;20106;-33
2022/06/30 05:01:58;;;;;;;3.80;2.20;;;;;;;28.36;34.11;96571.41;5093410;28;20031;-33
2022/06/30 05:04:23;;;;;;;4.97;2.15;;;;;;;28.35;33.42;96572.72;5093078;28;20032;-34
2022/06/30 05:06:49;;;;;;;4.43;1.73;;;;;;;28.35;33.86;96570.66;5093031;28;20066;-33
2022/06/30 05:09:14;;;;;;;5.30;1.77;;;;;;;28.36;33.64;96579.78;5093496;28;20109;-34
2022/06/30 05:11:39;;;;;;;3.67;1.48;;;;;;;28.33;33.27;96573.25;5093254;28;20016;-33
2022/06/30 05:14:05;;;;;;;3.00;1.48;;;;;;;28.33;33.48;96575.28;5093421;28;20032;-34
2022/06/30 05:16:30;;;;;;;5.90;1.98;;;;;;;28.29;32.90;96578.44;5093330;28;20016;-34
2022/06/30 05:18:56;;;;;;;4.82;1.60;;;;;;;28.31;33.42;96575.84;5095086;28;20028;-33
2022/06/30 05:21:21;;;;;;;2.70;1.40;;;;;;;28.32;33.11;96571.75;5097451;28;20035;-33
2022/06/30 05:26:28;;;;;;;3.33;1.40;;;;;;;28.36;33.52;96571.41;5097303;28;20023;-33
2022/06/30 05:26:33;;;;;;;2.38;1.70;;;;;;;28.32;33.56;96579.34;5097049;28;20032;-34
2022/06/30 05:28:59;;;;;;;5.55;1.70;;;;;;;28.32;33.65;96582.16;5097497;28;20027;-33
2022/06/30 05:31:24;;;;;;;4.70;1.70;;;;;;;28.34;33.49;96577.53;5097314;28;20024;-34
2022/06/30 05:33:50;;;;;;;4.18;1.80;;;;;;;28.33;34.11;96586.44;5097047;28;20051;-34
2022/06/30 05:36:15;;;;;;;7.38;1.70;;;;;;;28.37;33.30;96586.84;5097285;28;20069;-33
2022/06/30 05:38:40;;;;;;;5.30;1.80;;;;;;;28.37;33.46;96579.25;5096874;28;20028;-34
2022/06/30 05:41:06;;;;;;;3.00;1.75;;;;;;;28.34;33.19;96580.31;5096835;28;20496;-33
2022/06/30 05:43:31;;;;;;;7.05;2.15;;;;;;;28.37;33.54;96587.59;5096938;28;20032;-34
2022/06/30 05:45:57;;;;;;;4.80;1.60;;;;;;;28.33;33.17;96589.97;5097176;28;20030;-33
2022/06/30 05:48:22;;;;;;;3.05;1.52;;;;;;;28.35;33.21;96592.22;5096801;28;20016;-33
2022/06/30 05:50:49;;;;;;;3.45;1.33;;;;;;;28.31;33.72;96598.16;5096824;28;20024;-33
2022/06/30 05:53:15;;;;;;;3.63;1.80;;;;;;;28.21;33.60;96592.28;5096656;28;20035;-34
2022/06/30 05:55:40;;;;;;;4.68;1.27;;;;;;;28.24;33.08;96593.22;5096927;28;20382;-33
2022/06/30 05:58:06;;;;;;;3.10;1.40;;;;;;;28.27;32.79;96592.16;5095543;28;20032;-34
2022/06/30 06:00:32;;;;;;;1.80;1.20;;;;;;;28.27;33.14;96591.41;5096384;28;20090;-34
2022/06/30 06:02:59;;;;;;;4.35;2.08;;;;;;;28.31;33.06;96591.84;5096804;28;20099;-34
2022/06/30 06:05:25;;;;;;;2.67;1.50;;;;;;;28.20;32.80;96596.34;5096184;28;20059;-34
2022/06/30 06:07:51;;;;;;;4.38;1.80;;;;;;;28.26;32.96;96601.06;5096244;28;20032;-33
2022/06/30 06:10:17;;;;;;;3.67;1.42;;;;;;;28.24;33.52;96593.22;5096375;28;20432;-34
2022/06/30 06:12:43;;;;;;;4.00;1.30;;;;;;;28.26;33.30;96599.03;5096213;28;20028;-34
2022/06/30 06:15:11;;;;;;;4.90;1.38;;;;;;;28.29;33.41;96600.00;5096232;28;20397;-33
2022/06/30 06:17:44;;;;;;;2.83;1.30;;;;;;;28.23;33.50;96598.06;5096516;28;20016;-34
2022/06/30 06:20:12;;;;;;;2.53;1.63;;;;;;;28.24;33.16;96593.22;5096391;28;20066;-34
2022/06/30 06:22:38;;;;;;;2.85;1.48;;;;;;;28.31;33.28;96603.00;5096150;28;20034;-34
2022/06/30 06:25:04;;;;;;;1.70;1.13;;;;;;;28.31;33.30;96597.41;5095898;28;20027;-34
2022/06/30 06:27:29;;;;;;;4.05;1.45;;;;;;;28.28;33.23;96599.25;5096018;28;20428;-34
2022/06/30 06:29:55;;;;;;;1.70;1.45;;;;;;;28.26;33.32;96606.63;5095055;28;20024;-35
2022/06/30 06:32:22;;;;;;;4.75;1.63;;;;;;;27.20;33.71;96598.31;5086725;28;20032;-36
2022/06/30 06:34:48;;;;;;;3.92;1.63;;;;;;;27.69;32.12;96603.50;5074026;28;20067;-35
2022/06/30 06:37:13;;;;;;;3.03;1.40;;;;;;;27.96;31.64;96604.94;5073969;28;20056;-34
2022/06/30 06:39:38;;;;;;;2.53;1.50;;;;;;;28.01;32.14;96611.72;5074051;28;20036;-34
2022/06/30 06:42:04;;;;;;;2.25;1.52;;;;;;;28.01;31.71;96609.69;5073588;28;20027;-35
2022/06/30 06:44:30;;;;;;;1.85;1.20;;;;;;;28.05;32.29;96612.16;5071333;28;20032;-34
2022/06/30 06:46:55;;;;;;;3.58;1.50;;;;;;;27.97;32.32;96609.25;5073671;28;20028;-34
2022/06/30 06:49:20;;;;;;;3.35;1.23;;;;;;;28.00;32.43;96608.16;5073773;28;20024;-35
2022/06/30 06:51:46;;;;;;;1.83;1.23;;;;;;;28.04;32.27;96605.06;5073859;28;20438;-34
2022/06/30 06:54:11;;;;;;;2.45;1.40;;;;;;;28.01;32.82;96601.31;5074086;28;20032;-34
2022/06/30 06:56:37;;;;;;;3.80;1.52;;;;;;;27.89;31.95;96608.41;5076704;28;20021;-36
2022/06/30 06:59:02;;;;;;;2.13;1.38;;;;;;;27.81;31.49;96608.31;5084963;28;20432;-34
2022/06/30 07:01:28;;;;;;;3.88;1.70;;;;;;;27.87;31.87;96605.41;5080739;28;20060;-34
2022/06/30 07:03:53;;;;;;;3.00;1.60;;;;;;;27.96;32.35;96602.16;5078679;28;20505;-37
2022/06/30 07:06:19;;;;;;;2.60;1.55;;;;;;;27.84;32.06;96604.44;5090933;28;20040;-34
2022/06/30 07:08:44;;;;;;;2.75;1.60;;;;;;;27.98;31.38;96610.00;5091461;28;20396;-35
2022/06/30 07:11:09;;;;;;;2.05;1.10;;;;;;;27.85;31.24;96607.97;5082344;28;20462;-35
2022/06/30 07:13:35;;;;;;;3.17;1.30;;;;;;;27.74;31.46;96613.78;5093740;28;20082;-34
2022/06/30 07:16:02;;;;;;;2.20;1.52;;;;;;;27.73;31.10;96607.44;5093770;28;20427;-34
2022/06/30 07:18:27;;;;;;;2.70;1.30;;;;;;;27.76;31.10;96611.97;5093342;28;20034;-35
2022/06/30 07:20:53;;;;;;;2.47;1.30;;;;;;;27.68;31.40;96611.13;5093404;28;20020;-34
2022/06/30 07:23:19;;;;;;;2.88;1.48;;;;;;;27.70;31.45;96607.78;5093427;28;20453;-35
2022/06/30 07:25:44;;;;;;;1.77;1.30;;;;;;;27.85;31.39;96605.94;5093459;28;20466;-34
2022/06/30 07:28:10;;;;;;;3.17;1.50;;;;;;;27.79;31.50;96599.75;5093772;28;20036;-34
2022/06/30 07:30:35;;;;;;;1.85;1.25;;;;;;;27.72;31.67;96600.38;5093370;28;20020;-34
2022/06/30 07:33:00;;;;;;;3.08;1.30;;;;;;;27.75;30.84;96604.13;5093212;28;20104;-34
2022/06/30 07:35:26;;;;;;;1.75;1.25;;;;;;;27.66;32.41;96602.53;5093514;28;20087;-34
2022/06/30 07:37:51;;;;;;;1.45;1.25;;;;;;;27.89;32.07;96609.16;5093389;28;20114;-34
2022/06/30 07:40:17;;;;;;;2.40;1.30;;;;;;;27.85;31.26;96608.72;5093247;28;20027;-34
2022/06/30 07:42:43;;;;;;;2.95;1.48;;;;;;;27.58;31.28;96603.69;5093273;28;20031;-34
2022/06/30 07:45:10;;;;;;;2.85;1.17;;;;;;;27.52;31.98;96607.34;5091341;28;20032;-35
2022/06/30 07:47:39;;;;;;;4.60;1.20;;;;;;;27.50;31.59;96612.69;5093100;28;20032;-34
2022/06/30 07:50:05;;;;;;;3.55;1.30;;;;;;;27.51;31.95;96608.63;5093287;28;20034;-34
2022/06/30 07:52:33;;;;;;;1.60;1.30;;;;;;;27.79;31.88;96612.94;5093008;28;20028;-35
2022/06/30 07:54:59;;;;;;;3.40;1.25;;;;;;;27.75;31.84;96615.28;5093124;28;20362;-35
2022/06/30 07:57:26;;;;;;;3.42;1.58;;;;;;;27.90;31.73;96623.84;5093013;28;20046;-34
2022/06/30 07:59:52;;;;;;;3.05;1.50;;;;;;;27.59;32.04;96619.13;5092786;28;20520;-35
2022/06/30 08:02:17;;;;;;;3.20;1.40;;;;;;;27.92;31.71;96614.94;5092934;28;20047;-36
2022/06/30 08:04:43;;;;;;;1.55;1.13;;;;;;;27.75;32.08;96612.50;5092729;28;20039;-35
2022/06/30 08:07:08;;;;;;;3.80;1.40;;;;;;;27.65;31.67;96606.63;5092436;28;20099;-34
2022/06/30 08:09:34;;;;;;;5.20;1.27;;;;;;;27.57;31.15;96610.59;5092711;28;20054;-34
2022/06/30 08:11:59;;;;;;;1.88;1.23;;;;;;;27.73;30.89;96601.13;5092737;28;20032;-34
2022/06/30 08:14:25;;;;;;;5.15;1.75;;;;;;;27.85;31.58;96608.72;5091324;28;20051;-35
2022/06/30 08:16:51;;;;;;;2.25;1.20;;;;;;;27.82;31.89;96615.38;5092596;28;20087;-34
2022/06/30 08:19:19;;;;;;;2.33;1.33;;;;;;;27.76;31.79;96614.75;5092679;28;20354;-34
2022/06/30 08:21:45;;;;;;;3.17;1.55;;;;;;;27.79;31.24;96619.25;5092226;28;20035;-34
2022/06/30 08:24:11;;;;;;;3.90;1.45;;;;;;;27.85;31.72;96617.09;5092687;28;20085;-34
2022/06/30 08:26:36;;;;;;;1.70;0.95;;;;;;;27.98;32.30;96619.09;5092006;28;20028;-34
2022/06/30 08:29:02;;;;;;;3.03;1.25;;;;;;;27.99;31.93;96622.66;5090922;28;20020;-35
2022/06/30 08:31:28;;;;;;;3.20;1.50;;;;;;;28.06;31.85;96622.75;5092120;28;20036;-36
2022/06/30 08:33:54;;;;;;;2.47;1.38;;;;;;;27.99;31.75;96622.66;5092402;28;20093;-34
2022/06/30 08:36:20;;;;;;;1.92;1.20;;;;;;;27.92;32.68;96621.28;5092269;28;20023;-34
2022/06/30 08:38:46;;;;;;;1.52;1.42;;;;;;;28.02;32.58;96622.31;5092217;28;20024;-34
2022/06/30 08:43:59;;;;;;;2.35;1.60;;;;;;;28.08;32.80;96627.78;5092347;28;20035;-34
2022/06/30 08:46:26;;;;;;;1.48;1.30;;;;;;;27.99;32.86;96628.97;5089507;28;20035;-34
2022/06/30 08:48:53;;;;;;;2.25;1.30;;;;;;;27.99;33.68;96623.41;5092129;28;20744;-35
2022/06/30 08:51:20;;;;;;;1.80;1.40;;;;;;;27.97;32.90;96622.44;5092358;28;20027;-34
2022/06/30 08:53:57;;;;;;;3.65;1.50;;;;;;;28.01;33.03;96626.41;5091518;28;20137;-35
2022/06/30 08:56:24;;;;;;;1.55;1.08;;;;;;;28.00;33.21;96630.47;5091833;28;20047;-34
2022/06/30 08:58:54;;;;;;;1.10;1.00;;;;;;;27.98;33.04;96624.69;5092071;28;20089;-35
2022/06/30 09:01:20;;;;;;;2.90;1.20;;;;;;;28.03;32.69;96623.06;5092105;28;20062;-34
2022/06/30 09:03:46;;;;;;;2.13;1.33;;;;;;;28.03;33.02;96629.41;5090645;28;20023;-35
2022/06/30 09:06:12;;;;;;;2.10;1.20;;;;;;;28.01;33.19;96629.19;5091709;28;20089;-34
2022/06/30 09:08:38;;;;;;;2.47;1.40;;;;;;;28.01;33.56;96626.41;5091864;28;20545;-34
2022/06/30 09:11:03;;;;;;;1.88;1.38;;;;;;;28.03;32.22;96623.06;5091673;28;20028;-34
2022/06/30 09:13:48;;;;;;;3.03;1.23;;;;;;;27.78;31.61;96625.34;5091846;28;20020;-35
2022/06/30 09:16:15;;;;;;;2.50;1.60;;;;;;;27.85;32.63;96625.44;5091911;28;20057;-34
2022/06/30 09:18:40;;;;;;;3.03;1.92;;;;;;;27.60;31.29;96621.38;5091998;28;20024;-34
2022/06/30 09:21:19;;;;;;;3.33;1.70;;;;;;;27.79;32.87;96621.28;5091518;28;20394;-35
2022/06/30 09:23:46;;;;;;;2.67;1.50;;;;;;;27.94;32.52;96629.09;5091395;28;20028;-34
2022/06/30 09:26:20;;;;;;;9.23;2.53;;;;;;;27.80;32.46;96629.13;5073171;28;20025;-34
2022/06/30 09:28:55;;;;;;;3.90;1.77;;;;;;;27.85;32.63;96633.06;5072855;28;20424;-34
2022/06/30 09:31:35;;;;;;;2.70;1.60;;;;;;;27.85;31.99;96630.28;5071726;28;20085;-34
2022/06/30 09:34:16;;;;;;;5.72;1.60;;;;;;;27.96;31.79;96638.41;5073265;28;20421;-34
2022/06/30 09:36:42;;;;;;;3.40;1.55;;;;;;;27.91;31.21;96628.13;5071517;28;20108;-34
2022/06/30 09:39:10;;;;;;;2.97;2.38;;;;;;;27.97;32.06;96628.75;5072846;28;20474;-34
2022/06/30 09:41:41;;;;;;;3.58;1.65;;;;;;;27.98;31.77;96621.91;5073051;28;20028;-35
2022/06/30 09:44:15;;;;;;;3.95;1.90;;;;;;;28.03;31.93;96629.41;5072975;28;20025;-34
2022/06/30 09:47:10;;;;;;;3.95;1.60;;;;;;;28.00;32.02;96629.72;5072992;28;20103;-34
2022/06/30 09:49:45;;;;;;;2.63;1.67;;;;;;;27.99;31.88;96625.44;5072968;28;20021;-34
2022/06/30 09:52:23;;;;;;;2.15;1.67;;;;;;;27.99;31.86;96628.97;5072839;28;20024;-34
2022/06/30 09:54:59;;;;;;;2.60;1.60;;;;;;;27.97;32.28;96625.22;5072795;28;20386;-34
2022/06/30 09:57:31;;;;;;;2.03;1.60;;;;;;;27.98;32.24;96624.69;5073095;28;20082;-34
2022/06/30 09:59:58;;;;;;;3.85;1.73;;;;;;;27.95;31.73;96625.75;5072656;28;20040;-35
2022/06/30 10:02:29;;;;;;;2.15;1.40;;;;;;;27.96;31.76;96624.47;5073454;28;20515;-35
2022/06/30 10:04:55;;;;;;;1.88;1.50;;;;;;;27.95;31.97;96622.97;5071441;28;20418;-34
2022/06/30 10:07:22;;;;;;;6.72;2.05;;;;;;;27.97;31.61;96625.22;5076342;28;20031;-35
2022/06/30 10:09:50;;;;;;;4.38;1.67;;;;;;;28.02;31.33;96624.38;5076280;28;20021;-34
2022/06/30 10:12:21;;;;;;;3.22;1.73;;;;;;;28.05;31.47;96626.84;5075908;28;20025;-34
2022/06/30 10:14:48;;;;;;;3.28;1.52;;;;;;;28.04;31.37;96619.75;5076301;28;20031;-35
2022/06/30 10:17:25;;;;;;;2.78;1.48;;;;;;;28.03;31.44;96612.69;5076408;28;20424;-35
2022/06/30 10:19:52;;;;;;;3.83;1.30;;;;;;;28.06;31.31;96619.97;5076047;28;20024;-34
2022/06/30 10:22:19;;;;;;;3.28;1.20;;;;;;;28.02;31.59;96616.75;5075993;28;20021;-34
2022/06/30 10:24:46;;;;;;;3.45;1.48;;;;;;;28.01;31.18;96620.81;5075876;28;20069;-34
2022/06/30 10:27:12;;;;;;;3.60;1.30;;;;;;;28.00;30.98;96613.00;5075604;28;20032;-34
2022/06/30 10:29:40;;;;;;;3.55;1.33;;;;;;;28.03;30.88;96612.69;5075914;28;20378;-34
2022/06/30 10:32:38;;;;;;;1.55;1.20;;;;;;;28.04;30.88;96614.19;5076223;28;20024;-34
2022/06/30 10:35:15;;;;;;;5.32;1.42;;;;;;;28.05;30.56;96618.47;5066491;28;20401;-34
2022/06/30 10:37:51;;;;;;;7.88;1.73;;;;;;;28.05;30.90;96610.09;5075933;28;20367;-34
2022/06/30 10:40:34;;;;;;;3.80;1.20;;;;;;;28.06;30.25;96606.03;5075816;28;20024;-34
2022/06/30 10:43:00;;;;;;;6.65;1.60;;;;;;;28.10;30.58;96600.84;5075702;28;20036;-34
2022/06/30 10:45:28;;;;;;;4.88;1.48;;;;;;;28.03;30.22;96606.34;5075535;28;20020;-34
2022/06/30 10:47:58;;;;;;;4.75;1.50;;;;;;;28.09;30.76;96604.19;5075366;28;20024;-35
2022/06/30 10:50:38;;;;;;;5.55;1.20;;;;;;;28.06;30.27;96613.66;5075296;28;20390;-34
2022/06/30 10:53:09;;;;;;;2.88;1.10;;;;;;;28.06;30.13;96592.09;5075571;28;20033;-34
2022/06/30 10:55:47;;;;;;;3.38;1.40;;;;;;;27.99;30.63;96601.09;5075320;28;20103;-34
2022/06/30 10:58:12;;;;;;;4.28;1.30;;;;;;;28.06;30.64;96582.97;5075500;28;20032;-34
2022/06/30 11:00:46;;;;;;;4.55;1.40;;;;;;;27.99;30.16;96589.19;5075226;28;20391;-34
2022/06/30 11:03:37;;;;;;;3.10;1.45;;;;;;;27.96;30.41;96596.59;5075249;28;20053;-34
2022/06/30 11:06:05;;;;;;;2.65;1.30;;;;;;;28.09;30.31;96593.78;5075034;28;20398;-34
2022/06/30 11:08:46;;;;;;;3.85;1.58;;;;;;;28.05;29.30;96587.81;5075144;28;20028;-35
2022/06/30 11:11:21;;;;;;;2.30;1.10;;;;;;;28.06;28.80;96585.75;5075243;28;20028;-34
2022/06/30 11:13:56;;;;;;;2.58;1.40;;;;;;;28.06;28.82;96583.72;5075208;28;20107;-34
2022/06/30 11:16:23;;;;;;;6.90;1.30;;;;;;;28.08;28.40;96589.50;5074710;28;20479;-35
2022/06/30 11:18:48;;;;;;;7.72;1.20;;;;;;;28.05;29.42;96587.81;5074785;28;20433;-34
2022/06/30 11:21:14;;;;;;;2.15;0.95;;;;;;;28.04;28.81;96568.81;5074934;28;20021;-34
2022/06/30 11:23:45;;;;;;;1.85;1.05;;;;;;;28.11;29.20;96568.91;5078975;28;20024;-35
2022/06/30 11:28:57;;;;;;;2.60;1.17;;;;;;;28.14;28.50;96575.44;5095223;28;20035;-34
2022/06/30 11:31:35;;;;;;;3.88;1.08;;;;;;;28.16;28.34;96570.81;5094744;28;20028;-34
2022/06/30 11:34:15;;;;;;;2.88;0.98;;;;;;;28.08;27.60;96563.66;5094808;28;20104;-34
2022/06/30 11:36:43;;;;;;;2.97;1.10;;;;;;;28.12;26.99;96569.66;5094870;28;20487;-34
2022/06/30 11:39:10;;;;;;;4.93;1.45;;;;;;;28.08;27.17;96564.41;5094809;28;20094;-34
2022/06/30 11:41:56;;;;;;;5.25;1.30;;;;;;;28.09;27.22;96565.91;5094659;28;20077;-35
2022/06/30 11:44:35;;;;;;;4.88;1.02;;;;;;;28.09;26.86;96565.91;5094889;28;20028;-29
2022/06/30 11:47:05;;;;;;;3.30;0.95;;;;;;;28.11;26.19;96562.56;5094634;28;20020;-28